Raymond, CA

9:10 AM PST en Febrero 13, 2016 (GMT -0800)
Ben Hur/Buckeye | | Change Station
CLOSE
Current Station
Estación meteorológica personal
Location: Mariposa, CA
Altura: 1467 ft
Estaciones meteorológicas cercanas

Alt 1467 ft 37.42 °N, 119.97 °W | Updated 14 minutes ago

Despejado
Despejado
38.8 ° F
Sensación térmica 39 ° F
N
0.0
Viento Variable Viento desde ONO

Hoy
Alta -- | Baja -- ° F
--% Posibilidad de precipitaciones
Ayer
Alta -- | Baja -- ° F
Precip. -- pul
Presión 30.26 pul
Visibilidad 6.0 Millas
Nubes Nubes dispersas 500 ft
Vientos helados 39 ° F
Punto de rocío 38 ° F
Humedad 99%
Precipitaciones 0.00 pul
Espesor de la nieve No disponible.
6:51 AM 5:37 PM
Creciente, 32% visible
METAR KMAE 131653Z AUTO 00000KT 6SM BR SCT005 10/08 A3026 RMK AO2 SLP247 T01000083
Presión 30.26 pul
Visibilidad 6.0 Millas
Nubes Nubes dispersas 500 ft
Vientos helados 39 ° F
Punto de rocío 38 ° F
Humedad 99%
Precipitaciones 0.00 pul
Espesor de la nieve No disponible.
6:51 AM 5:37 PM
Creciente, 32% visible
METAR KMAE 131653Z AUTO 00000KT 6SM BR SCT005 10/08 A3026 RMK AO2 SLP247 T01000083

10-Day Weather Forecast

Almanac

Astronomía

Feb. 13, 2016 Salida Puesta
Hora real
Crepúsculo civil
Crepúsculo náutico
Crepúsculo astronómico
Luna
Horas de luz
Horas de luz
Tomorrow will be .
, % of the Moon is Illuminated

Extremos de hoy

Máximos del estado Bajos del estado

Community

WunderPhotos

Upload Photos

1,892,611 ¡fotos cargadas!

WunderBlog® & News

Nearby

Calidad del aire

  Calidad del aire Índice AQ Contaminante
Not available.

Grosos de nieve

Estación Profundido Altura

Actividad de terremotos

Ciudad Distance Mag. Tiempo y dato
Magnitud mínima muestra es 2,5.

Temperaturas de aguas costeras

Lugar Temperatura

Stations

Estaciones meteorológicas cercanas

Ubicación de la estación Temp. Vientos helados Punto de rocío Humedad Viento Precip. Alt Actualizado Tipo
                   

Watches & Warnings

There are currently no watches in effect.